Time;durP1;ratioP1;P1;durP2;ratioP2;P2;SDS_P1;SDS_P2;PMS_P1;PMS_P2;Temp;Humidity;BMP_temperature;BMP_pressure;BME280_temperature;BME280_humidity;BME280_pressure;Samples;Min_cycle;Max_cycle;Signal;HPM_P1;HPM_P2
2023/05/19 00:02:19;;;;;;;13.30;3.90;;;;;;;18.59;62.87;101184.47;5007753;28;20026;-46
2023/05/19 00:04:47;;;;;;;14.27;3.33;;;;;;;18.54;62.51;101183.56;5019236;28;20042;-49
2023/05/19 00:07:20;;;;;;;11.77;3.90;;;;;;;18.34;63.96;101184.13;5012311;28;20041;-47
2023/05/19 00:09:47;;;;;;;19.80;4.53;;;;;;;17.80;63.86;101183.81;5025140;28;20025;-47
2023/05/19 00:12:14;;;;;;;12.15;3.83;;;;;;;18.06;64.29;101171.53;5027538;28;20025;-46
2023/05/19 00:14:40;;;;;;;11.95;3.20;;;;;;;18.02;63.41;101182.00;5012251;28;20022;-46
2023/05/19 00:17:07;;;;;;;10.70;3.67;;;;;;;18.05;64.49;101176.13;5004919;28;20092;-45
2023/05/19 00:19:33;;;;;;;10.40;4.25;;;;;;;18.09;64.28;101173.72;4992232;28;20050;-46
2023/05/19 00:21:59;;;;;;;11.70;3.95;;;;;;;17.84;65.19;101176.84;4992385;28;20026;-48
2023/05/19 00:24:26;;;;;;;18.23;4.22;;;;;;;17.68;64.90;101181.97;4992183;28;20609;-47
2023/05/19 00:26:52;;;;;;;12.60;4.53;;;;;;;17.78;65.86;101177.84;4992256;28;20038;-46
2023/05/19 00:29:18;;;;;;;11.38;4.05;;;;;;;17.76;65.15;101167.25;4992434;28;20053;-47
2023/05/19 00:31:45;;;;;;;14.95;4.03;;;;;;;17.58;65.68;101186.41;4992201;28;20033;-45
2023/05/19 00:34:11;;;;;;;12.20;3.85;;;;;;;17.87;65.70;101184.47;4992164;28;20023;-46
2023/05/19 00:36:37;;;;;;;11.82;3.97;;;;;;;17.41;65.78;101180.97;4991788;28;20088;-46
2023/05/19 00:39:03;;;;;;;10.80;3.60;;;;;;;17.42;66.35;101178.00;4992503;28;20019;-46
2023/05/19 00:41:30;;;;;;;10.73;3.40;;;;;;;17.26;67.12;101178.78;5006267;28;20048;-50
2023/05/19 00:43:56;;;;;;;16.15;4.00;;;;;;;16.81;67.70;101186.81;5007318;28;20026;-47
2023/05/19 00:46:23;;;;;;;11.55;4.03;;;;;;;16.40;69.50;101185.91;5010551;28;20471;-49
2023/05/19 00:48:49;;;;;;;12.77;4.05;;;;;;;16.41;69.65;101184.84;5011285;28;20076;-45
2023/05/19 00:51:16;;;;;;;12.18;4.38;;;;;;;16.56;70.23;101189.78;5011721;28;20104;-46
2023/05/19 00:53:47;;;;;;;15.63;4.22;;;;;;;16.57;70.14;101186.84;5011229;28;20033;-46
2023/05/19 00:56:18;;;;;;;14.75;4.05;;;;;;;16.69;69.37;101180.59;5005008;28;20027;-49
2023/05/19 00:58:44;;;;;;;13.73;4.25;;;;;;;16.72;70.08;101178.28;5004464;28;20026;-44
2023/05/19 01:01:13;;;;;;;17.50;4.57;;;;;;;16.85;69.99;101182.59;4997023;28;20087;-46
2023/05/19 01:03:41;;;;;;;16.95;4.10;;;;;;;16.94;69.97;101180.34;5015239;28;20512;-49
2023/05/19 01:06:08;;;;;;;14.00;4.05;;;;;;;16.64;69.34;101187.53;4999216;28;20037;-50
2023/05/19 01:08:36;;;;;;;13.90;4.38;;;;;;;16.52;70.22;101189.41;5006121;28;20037;-50
2023/05/19 01:11:07;;;;;;;15.57;4.45;;;;;;;16.44;70.52;101180.88;5015340;28;20068;-50
2023/05/19 01:13:34;;;;;;;10.63;4.25;;;;;;;16.64;70.38;101190.22;5012733;28;20022;-50
2023/05/19 01:16:06;;;;;;;11.63;4.38;;;;;;;16.47;70.69;101185.78;5014390;28;20034;-51
2023/05/19 01:18:54;;;;;;;18.17;4.15;;;;;;;16.58;70.87;101206.56;5015655;28;20116;-47
2023/05/19 01:21:35;;;;;;;14.82;4.70;;;;;;;16.64;70.76;101192.94;5011643;28;20044;-51
2023/05/19 01:24:21;;;;;;;13.77;4.88;;;;;;;16.37;71.88;101181.78;5014948;28;20164;-52
2023/05/19 01:26:59;;;;;;;15.00;4.45;;;;;;;16.53;70.76;101185.66;5016146;28;20107;-49
2023/05/19 01:29:28;;;;;;;17.95;4.68;;;;;;;16.43;70.46;101190.81;4996191;28;20387;-48
2023/05/19 01:31:58;;;;;;;15.18;4.72;;;;;;;16.34;71.79;101193.09;4995704;28;20106;-49
2023/05/19 01:34:26;;;;;;;15.60;4.60;;;;;;;16.57;70.80;101192.25;5017959;28;20044;-47
2023/05/19 01:36:54;;;;;;;12.85;4.63;;;;;;;16.34;71.13;101190.38;5017734;28;20121;-46
2023/05/19 01:39:22;;;;;;;15.07;4.45;;;;;;;16.44;71.30;101186.28;5007010;28;20144;-49
2023/05/19 01:41:49;;;;;;;17.92;4.97;;;;;;;16.40;70.29;101191.31;5014171;28;20263;-45
2023/05/19 01:44:16;;;;;;;14.07;4.05;;;;;;;16.42;70.53;101191.91;5013194;28;20487;-46
2023/05/19 01:46:43;;;;;;;15.23;4.10;;;;;;;16.36;70.60;101190.13;5015179;28;20069;-46
2023/05/19 01:49:10;;;;;;;12.45;4.40;;;;;;;16.56;70.16;101176.28;5007347;28;20038;-45
2023/05/19 01:51:36;;;;;;;13.48;4.43;;;;;;;16.58;70.13;101182.25;5014640;28;20501;-48
2023/05/19 01:54:02;;;;;;;14.45;4.47;;;;;;;16.83;70.10;101195.53;5014533;28;20483;-49
2023/05/19 01:57:06;;;;;;;12.02;4.63;;;;;;;16.74;69.16;101188.84;5011352;28;20467;-49
2023/05/19 02:00:06;;;;;;;17.23;4.10;;;;;;;16.55;69.62;101194.38;5012209;28;20050;-49
2023/05/19 02:03:01;;;;;;;29.25;4.93;;;;;;;16.85;69.12;101188.81;5014431;28;20034;-45
2023/05/19 02:06:02;;;;;;;13.50;4.38;;;;;;;17.08;68.48;101204.13;5010947;28;20474;-44
2023/05/19 02:08:57;;;;;;;10.38;4.25;;;;;;;16.88;69.25;101204.56;4995079;28;20026;-47
2023/05/19 02:11:55;;;;;;;19.52;4.57;;;;;;;16.64;70.01;101214.53;4987832;28;20041;-45
2023/05/19 02:14:33;;;;;;;21.73;4.03;;;;;;;16.68;70.06;101206.78;4987153;28;20525;-45
2023/05/19 02:17:02;;;;;;;18.13;4.57;;;;;;;16.73;69.40;101206.13;5013356;28;20044;-46
2023/05/19 02:19:34;;;;;;;16.42;4.63;;;;;;;16.43;70.85;101209.75;5013995;28;20540;-47
2023/05/19 02:22:00;;;;;;;15.88;4.13;;;;;;;16.40;70.51;101199.44;5010225;28;20379;-45
2023/05/19 02:24:26;;;;;;;17.08;4.50;;;;;;;16.57;69.87;101200.34;4994744;28;20037;-44
2023/05/19 02:26:53;;;;;;;16.40;4.43;;;;;;;16.58;69.45;101207.38;5008406;28;20093;-44
2023/05/19 02:29:20;;;;;;;19.55;4.75;;;;;;;16.86;68.35;101200.44;5014232;28;20030;-43
2023/05/19 02:31:47;;;;;;;12.60;3.88;;;;;;;17.14;68.02;101203.19;5013961;28;20045;-44
2023/05/19 02:34:13;;;;;;;11.93;3.83;;;;;;;17.21;67.10;101199.50;5013706;28;20072;-44
2023/05/19 02:36:44;;;;;;;13.23;4.25;;;;;;;17.28;66.90;101209.13;5007818;28;20041;-43
2023/05/19 02:39:11;;;;;;;14.65;4.18;;;;;;;16.81;67.70;101195.75;4994685;28;20026;-42
2023/05/19 02:41:38;;;;;;;20.42;4.35;;;;;;;16.82;68.55;101196.56;4994786;28;20049;-43
2023/05/19 02:44:04;;;;;;;14.43;5.50;;;;;;;16.69;68.52;101200.31;4994294;28;20513;-42
2023/05/19 02:46:31;;;;;;;11.85;3.70;;;;;;;16.56;69.16;101200.59;4994476;28;20038;-41
2023/05/19 02:48:57;;;;;;;16.98;4.70;;;;;;;16.17;70.03;101192.16;4994500;28;20023;-43
2023/05/19 02:51:23;;;;;;;15.43;4.35;;;;;;;15.76;72.41;101187.63;5011236;28;20611;-43
2023/05/19 02:53:49;;;;;;;12.60;4.50;;;;;;;15.59;72.89;101190.94;5013085;28;20026;-44
2023/05/19 02:56:16;;;;;;;15.45;4.28;;;;;;;15.48;73.75;101189.03;5013923;28;20038;-43
2023/05/19 02:58:42;;;;;;;15.82;4.35;;;;;;;15.17;75.46;101192.00;5007335;28;20084;-49
2023/05/19 03:01:09;;;;;;;15.57;4.43;;;;;;;15.18;76.10;101199.84;5013872;28;20022;-47
2023/05/19 03:03:36;;;;;;;11.27;4.40;;;;;;;15.24;75.57;101212.41;5012804;28;20557;-48
2023/05/19 03:06:02;;;;;;;15.52;4.50;;;;;;;15.26;75.35;101217.56;5013863;28;20034;-46
2023/05/19 03:08:28;;;;;;;11.55;4.43;;;;;;;15.27;75.27;101209.28;5013420;28;20064;-49
2023/05/19 03:10:55;;;;;;;16.77;4.80;;;;;;;15.16;76.14;101220.84;5001364;28;20088;-46
2023/05/19 03:13:21;;;;;;;16.95;4.75;;;;;;;14.90;77.33;101208.50;5013142;28;20443;-45
2023/05/19 03:15:49;;;;;;;15.98;4.47;;;;;;;14.82;77.81;101206.09;5012358;28;20026;-46
2023/05/19 03:18:16;;;;;;;17.40;4.85;;;;;;;14.69;78.28;101222.41;5012922;28;20557;-45
2023/05/19 03:20:43;;;;;;;14.95;4.60;;;;;;;14.63;78.44;101224.13;5012306;28;20475;-43
2023/05/19 03:23:10;;;;;;;15.85;4.72;;;;;;;14.51;79.36;101228.63;5012624;28;20445;-43
2023/05/19 03:25:36;;;;;;;12.73;4.40;;;;;;;14.51;79.27;101226.75;5012986;28;20643;-42
2023/05/19 03:28:02;;;;;;;22.50;5.28;;;;;;;14.46;79.82;101229.25;5012333;28;20029;-44
2023/05/19 03:30:28;;;;;;;14.88;4.68;;;;;;;14.47;79.88;101225.53;5008893;28;20077;-43
2023/05/19 03:32:55;;;;;;;18.90;4.85;;;;;;;14.23;80.91;101223.66;5012761;28;20072;-44
2023/05/19 03:35:21;;;;;;;20.30;4.65;;;;;;;14.26;80.79;101228.59;5013546;28;20494;-42
2023/05/19 03:37:47;;;;;;;14.20;4.68;;;;;;;14.17;81.50;101220.00;5013190;28;20029;-42
2023/05/19 03:40:14;;;;;;;15.48;5.25;;;;;;;14.09;82.13;101222.94;5011876;28;20022;-42
2023/05/19 03:42:41;;;;;;;15.73;5.03;;;;;;;14.09;82.03;101227.50;5012746;28;20752;-43
2023/05/19 03:45:07;;;;;;;19.80;5.88;;;;;;;14.11;82.08;101236.19;5013014;28;20061;-44
2023/05/19 03:47:34;;;;;;;19.17;4.85;;;;;;;14.08;81.89;101248.22;5013345;28;20040;-44
2023/05/19 03:50:01;;;;;;;22.13;5.85;;;;;;;13.99;82.03;101244.13;5012987;28;20022;-44
2023/05/19 03:52:27;;;;;;;16.55;4.57;;;;;;;14.07;81.66;101240.38;5012764;28;20018;-44
2023/05/19 03:54:53;;;;;;;13.40;5.22;;;;;;;13.99;81.89;101238.75;5012543;28;20088;-44
2023/05/19 03:57:20;;;;;;;18.27;5.45;;;;;;;13.87;82.72;101245.88;5025033;28;20040;-45
2023/05/19 03:59:46;;;;;;;16.98;5.07;;;;;;;13.80;82.99;101251.31;5012979;28;20034;-43
2023/05/19 04:02:12;;;;;;;13.13;4.28;;;;;;;13.79;83.16;101251.53;5012762;28;20034;-43
2023/05/19 04:04:38;;;;;;;21.25;5.55;;;;;;;13.71;83.76;101258.00;5009584;28;20050;-44
2023/05/19 04:07:06;;;;;;;17.58;5.07;;;;;;;13.61;84.00;101247.72;5012270;28;20033;-43
2023/05/19 04:09:34;;;;;;;13.85;4.55;;;;;;;13.61;84.14;101257.66;5011701;28;20073;-42
2023/05/19 04:12:04;;;;;;;15.75;5.68;;;;;;;13.44;85.28;101255.47;5012229;28;20036;-43
2023/05/19 04:14:30;;;;;;;19.05;5.78;;;;;;;13.58;84.58;101252.69;5012083;28;20022;-43
2023/05/19 04:16:56;;;;;;;17.95;5.32;;;;;;;13.54;84.79;101265.75;5012435;28;20141;-44
2023/05/19 04:19:23;;;;;;;21.25;6.55;;;;;;;13.39;85.50;101266.03;5012188;28;20029;-44
2023/05/19 04:21:49;;;;;;;16.65;5.40;;;;;;;13.41;85.29;101266.63;5011113;28;20636;-44
2023/05/19 04:24:15;;;;;;;17.65;5.43;;;;;;;13.46;84.76;101263.31;5011881;28;20033;-43
2023/05/19 04:26:44;;;;;;;18.10;4.82;;;;;;;13.41;84.72;101263.94;5011981;28;20037;-43
2023/05/19 04:29:12;;;;;;;23.38;5.53;;;;;;;13.17;85.76;101253.91;5011992;28;20452;-43
2023/05/19 04:31:43;;;;;;;19.02;5.75;;;;;;;13.29;85.24;101262.16;5012183;28;20030;-43
2023/05/19 04:34:10;;;;;;;19.65;5.88;;;;;;;13.16;85.93;101261.16;5016117;28;20053;-43
2023/05/19 04:36:37;;;;;;;20.35;5.43;;;;;;;13.23;85.32;101263.00;5031184;28;20029;-44
2023/05/19 04:39:06;;;;;;;20.42;5.47;;;;;;;13.23;85.63;101266.53;5031800;28;20521;-42
2023/05/19 04:41:33;;;;;;;18.83;5.30;;;;;;;13.14;86.16;101265.91;5016774;28;20125;-42
2023/05/19 04:44:00;;;;;;;16.77;5.25;;;;;;;13.19;85.87;101276.00;4993941;28;20030;-44
2023/05/19 04:46:29;;;;;;;25.83;6.00;;;;;;;13.12;86.22;101273.34;5011879;28;20034;-43
2023/05/19 04:48:56;;;;;;;19.35;6.28;;;;;;;13.17;85.95;101272.72;5011859;28;20026;-46
2023/05/19 04:51:30;;;;;;;17.25;5.18;;;;;;;13.10;86.15;101272.75;5011959;28;20022;-43
2023/05/19 04:53:57;;;;;;;17.75;5.15;;;;;;;13.10;86.27;101277.28;5011749;28;20030;-42
2023/05/19 04:56:23;;;;;;;17.50;5.82;;;;;;;13.04;86.49;101272.75;5011690;28;20030;-44
2023/05/19 04:58:49;;;;;;;16.75;5.53;;;;;;;12.98;86.82;101284.34;5011581;28;20487;-43
2023/05/19 05:01:15;;;;;;;19.50;5.32;;;;;;;12.91;87.23;101276.31;5011555;28;20442;-43
2023/05/19 05:03:42;;;;;;;21.98;6.10;;;;;;;12.88;87.39;101274.88;5011146;28;20076;-45
2023/05/19 05:06:08;;;;;;;19.17;5.43;;;;;;;12.85;87.62;101280.66;5011500;28;20061;-47
2023/05/19 05:08:38;;;;;;;20.45;5.25;;;;;;;12.95;86.58;101288.28;5011386;28;20072;-42
2023/05/19 05:11:05;;;;;;;21.13;5.63;;;;;;;12.89;86.92;101292.66;5011125;28;20057;-46
2023/05/19 05:13:31;;;;;;;16.52;5.55;;;;;;;12.85;87.54;101294.09;5010757;28;20036;-43
2023/05/19 05:15:58;;;;;;;23.33;6.13;;;;;;;12.85;87.35;101291.41;5010756;28;20030;-43
2023/05/19 05:18:25;;;;;;;19.50;5.22;;;;;;;12.87;87.35;101293.88;5010106;28;20050;-44
2023/05/19 05:20:53;;;;;;;17.63;5.70;;;;;;;12.94;86.76;101292.03;5011439;28;20049;-43
2023/05/19 05:23:19;;;;;;;17.67;5.20;;;;;;;12.90;87.31;101293.47;5007488;28;20053;-43
2023/05/19 05:25:46;;;;;;;18.98;5.75;;;;;;;12.78;87.93;101287.91;4992020;28;20519;-43
2023/05/19 05:28:12;;;;;;;21.63;5.15;;;;;;;12.85;87.24;101296.78;4991972;28;20036;-43
2023/05/19 05:30:40;;;;;;;21.67;5.28;;;;;;;12.85;87.38;101302.16;4991759;28;20050;-42
2023/05/19 05:33:06;;;;;;;14.60;4.95;;;;;;;12.80;87.65;101301.94;4991721;28;20030;-43
2023/05/19 05:35:33;;;;;;;21.45;6.55;;;;;;;12.71;88.05;101310.44;4996408;28;20056;-42
2023/05/19 05:38:00;;;;;;;30.20;6.95;;;;;;;12.80;87.53;101315.38;5011594;28;20393;-44
2023/05/19 05:40:26;;;;;;;23.10;6.85;;;;;;;12.75;87.91;101304.44;5011083;28;20022;-44
2023/05/19 05:42:54;;;;;;;22.08;5.95;;;;;;;12.70;88.08;101306.91;5011160;28;20030;-44
2023/05/19 05:45:24;;;;;;;23.25;5.47;;;;;;;12.73;87.98;101319.94;5011798;28;20037;-45
2023/05/19 05:47:50;;;;;;;16.60;5.63;;;;;;;12.78;87.61;101316.63;5012435;28;20057;-42
2023/05/19 05:50:17;;;;;;;20.95;7.38;;;;;;;12.72;87.77;101307.56;5030473;28;20030;-45
2023/05/19 05:52:47;;;;;;;20.17;5.75;;;;;;;12.72;88.00;101320.16;5034510;28;20445;-43
2023/05/19 05:55:16;;;;;;;16.63;5.63;;;;;;;12.68;88.23;101306.31;5016590;28;20430;-44
2023/05/19 05:57:42;;;;;;;17.70;5.85;;;;;;;12.62;88.60;101307.16;5034639;28;20029;-44
2023/05/19 06:00:14;;;;;;;17.88;5.00;;;;;;;12.61;88.41;101305.50;5015669;28;20021;-46
2023/05/19 06:02:46;;;;;;;21.20;5.80;;;;;;;12.54;88.63;101305.47;5014197;28;20110;-42
2023/05/19 06:05:12;;;;;;;25.10;5.72;;;;;;;12.59;88.16;101307.56;5014466;28;20049;-42
2023/05/19 06:07:41;;;;;;;20.83;6.13;;;;;;;12.56;88.68;101311.50;5014574;28;20057;-45
2023/05/19 06:10:08;;;;;;;18.88;5.82;;;;;;;12.61;88.27;101310.88;5014422;28;20105;-44
2023/05/19 06:12:38;;;;;;;18.70;5.18;;;;;;;12.60;88.02;101319.94;5014080;28;20033;-47
2023/05/19 06:15:06;;;;;;;19.92;5.28;;;;;;;12.53;88.52;101319.94;5014332;28;20034;-45
2023/05/19 06:17:34;;;;;;;14.95;5.32;;;;;;;12.53;88.08;101321.81;5014245;28;20067;-44
2023/05/19 06:20:02;;;;;;;16.70;5.07;;;;;;;12.48;88.41;101327.78;5014547;28;20030;-44
2023/05/19 06:22:28;;;;;;;19.10;6.13;;;;;;;12.45;88.87;101322.03;5013850;28;20026;-43
2023/05/19 06:24:54;;;;;;;25.90;6.53;;;;;;;12.37;89.34;101317.69;5013616;28;20033;-44
2023/05/19 06:27:20;;;;;;;26.85;5.15;;;;;;;12.34;89.60;101321.63;5014076;28;20099;-44
2023/05/19 06:29:47;;;;;;;19.63;6.45;;;;;;;12.31;89.93;101323.88;5014031;28;20034;-42
2023/05/19 06:32:13;;;;;;;19.58;6.10;;;;;;;12.29;89.85;101323.25;5013776;28;20034;-44
2023/05/19 06:34:39;;;;;;;23.98;5.53;;;;;;;12.37;89.88;101331.91;5014075;28;20022;-46
2023/05/19 06:37:05;;;;;;;21.75;6.80;;;;;;;12.33;89.88;101335.25;5013872;28;20038;-43
2023/05/19 06:39:32;;;;;;;16.48;6.05;;;;;;;12.18;90.45;101324.69;5014159;28;20760;-44
2023/05/19 06:41:58;;;;;;;20.40;5.80;;;;;;;12.27;89.97;101322.63;5013599;28;20109;-43
2023/05/19 06:44:24;;;;;;;21.42;5.82;;;;;;;12.33;89.77;101321.81;5013709;28;20038;-43
2023/05/19 06:46:50;;;;;;;21.92;6.50;;;;;;;12.29;90.21;101328.63;5013798;28;20056;-43
2023/05/19 06:49:17;;;;;;;22.88;5.35;;;;;;;12.32;90.18;101320.97;5021421;28;20105;-43
2023/05/19 06:51:43;;;;;;;19.15;6.00;;;;;;;12.36;89.94;101324.09;5032900;28;20510;-44
2023/05/19 06:54:14;;;;;;;17.55;5.85;;;;;;;12.34;90.25;101318.09;5018815;28;20068;-43
2023/05/19 06:56:41;;;;;;;21.83;6.43;;;;;;;12.28;90.54;101324.28;5013710;28;20394;-42
2023/05/19 06:59:07;;;;;;;19.08;5.43;;;;;;;12.22;90.28;101328.63;5013132;28;20030;-42
2023/05/19 07:01:33;;;;;;;16.73;5.80;;;;;;;12.19;90.73;101326.34;5013081;28;20394;-43
2023/05/19 07:03:59;;;;;;;17.88;5.88;;;;;;;12.23;90.73;101321.41;5013465;28;20050;-42
2023/05/19 07:06:26;;;;;;;23.50;6.75;;;;;;;12.11;91.16;101315.81;5013377;28;20386;-44
2023/05/19 07:08:52;;;;;;;18.35;6.03;;;;;;;12.06;91.27;101321.78;5013617;28;20072;-43
2023/05/19 07:11:18;;;;;;;23.80;6.22;;;;;;;12.15;90.91;101320.53;5013238;28;20075;-42
2023/05/19 07:13:44;;;;;;;19.98;6.55;;;;;;;12.10;91.35;101322.19;5013019;28;20022;-42
2023/05/19 07:16:10;;;;;;;23.55;6.50;;;;;;;12.15;90.60;101322.41;5013247;28;20033;-43
2023/05/19 07:18:37;;;;;;;17.92;5.45;;;;;;;12.17;90.73;101331.09;5013274;28;20022;-43
2023/05/19 07:21:03;;;;;;;19.80;5.18;;;;;;;12.07;91.14;101336.03;5013160;28;20022;-43
2023/05/19 07:23:29;;;;;;;20.83;6.25;;;;;;;12.00;91.54;101337.88;5012877;28;20026;-44
2023/05/19 07:25:55;;;;;;;18.33;5.78;;;;;;;12.06;91.28;101329.84;5013032;28;20026;-43
2023/05/19 07:28:22;;;;;;;21.70;6.63;;;;;;;11.97;91.95;101319.50;5012660;28;20029;-45
2023/05/19 07:30:48;;;;;;;19.80;6.75;;;;;;;12.00;92.31;101319.91;5012742;28;20493;-45
2023/05/19 07:33:14;;;;;;;20.77;6.40;;;;;;;12.07;92.00;101325.28;5011248;28;20033;-43
2023/05/19 07:35:41;;;;;;;21.70;6.53;;;;;;;11.96;92.44;101321.34;5012354;28;20030;-43
2023/05/19 07:38:07;;;;;;;21.23;6.25;;;;;;;12.06;92.27;101320.97;5012552;28;20466;-43
2023/05/19 07:40:33;;;;;;;15.23;5.80;;;;;;;12.01;92.36;101318.06;5012666;28;20034;-44
2023/05/19 07:43:00;;;;;;;19.58;5.80;;;;;;;11.93;92.99;101316.38;5012505;28;20022;-43
2023/05/19 07:45:26;;;;;;;26.38;6.68;;;;;;;11.99;93.10;101312.06;5012670;28;20026;-45
2023/05/19 07:47:53;;;;;;;20.55;5.97;;;;;;;12.01;93.21;101315.38;5012591;28;20033;-43
2023/05/19 07:50:19;;;;;;;20.75;6.85;;;;;;;12.08;92.25;101313.53;5012703;28;20471;-43
2023/05/19 07:52:46;;;;;;;19.67;5.55;;;;;;;12.11;92.14;101313.97;5012252;28;20076;-44
2023/05/19 07:55:13;;;;;;;24.42;7.10;;;;;;;11.95;93.50;101313.50;5012659;28;20116;-43
2023/05/19 07:57:40;;;;;;;14.05;5.75;;;;;;;11.99;93.44;101317.41;5012289;28;20502;-43
2023/05/19 08:00:10;;;;;;;19.35;6.30;;;;;;;12.01;93.46;101312.69;5012267;28;20095;-42
2023/05/19 08:02:36;;;;;;;20.38;5.88;;;;;;;12.10;92.72;101319.50;5012149;28;20030;-43
2023/05/19 08:05:03;;;;;;;24.08;6.07;;;;;;;12.11;93.05;101315.81;5012474;28;20049;-43
2023/05/19 08:07:29;;;;;;;25.45;5.82;;;;;;;12.13;92.54;101313.75;5012265;28;20502;-42
2023/05/19 08:09:56;;;;;;;23.27;6.28;;;;;;;12.09;93.22;101317.84;5012476;28;20060;-44
2023/05/19 08:12:22;;;;;;;20.38;6.05;;;;;;;12.12;93.04;101312.09;5011183;28;20163;-43
2023/05/19 08:14:48;;;;;;;18.33;6.03;;;;;;;12.12;92.57;101325.50;5012234;28;20546;-44
2023/05/19 08:17:15;;;;;;;16.10;5.47;;;;;;;12.16;92.16;101321.41;5012429;28;20033;-43
2023/05/19 08:19:41;;;;;;;15.57;5.45;;;;;;;12.14;92.60;101310.03;5012220;28;20125;-43
2023/05/19 08:22:07;;;;;;;18.52;6.00;;;;;;;12.09;92.27;101313.31;5012126;28;20584;-44
2023/05/19 08:24:33;;;;;;;20.73;5.72;;;;;;;12.10;92.13;101316.81;5012238;28;20032;-43
2023/05/19 08:27:00;;;;;;;21.80;6.13;;;;;;;12.17;92.23;101308.81;5012251;28;20026;-43
2023/05/19 08:29:26;;;;;;;21.88;6.18;;;;;;;12.19;92.11;101312.91;5005320;28;20085;-45
2023/05/19 08:31:52;;;;;;;21.63;6.15;;;;;;;12.17;92.05;101314.16;4992587;28;20029;-43
2023/05/19 08:34:19;;;;;;;15.32;5.55;;;;;;;12.14;92.23;101312.72;5006340;28;20026;-46
2023/05/19 08:36:46;;;;;;;18.15;5.70;;;;;;;12.10;92.56;101309.63;5012131;28;20081;-43
2023/05/19 08:39:14;;;;;;;24.40;6.10;;;;;;;12.12;93.44;101301.38;5011950;28;20026;-43
2023/05/19 08:41:41;;;;;;;21.08;6.88;;;;;;;12.17;92.60;101303.44;5011275;28;20025;-44
2023/05/19 08:44:07;;;;;;;15.52;5.40;;;;;;;12.12;92.56;101310.22;5011585;28;20109;-43
2023/05/19 08:46:34;;;;;;;18.60;6.07;;;;;;;12.14;92.47;101310.03;5010434;28;20025;-44
2023/05/19 08:49:12;;;;;;;18.10;5.55;;;;;;;12.13;92.50;101313.75;5016848;28;20029;-42
2023/05/19 08:51:54;;;;;;;21.70;6.50;;;;;;;12.12;92.21;101306.72;5031282;28;20026;-43
2023/05/19 08:54:24;;;;;;;18.77;6.30;;;;;;;12.01;92.55;101310.03;5009454;28;20018;-42
2023/05/19 08:56:50;;;;;;;17.38;5.60;;;;;;;12.08;92.23;101310.84;5011804;28;20033;-44
2023/05/19 08:59:18;;;;;;;18.58;6.32;;;;;;;11.94;93.47;101299.28;5011593;28;20106;-44
2023/05/19 09:01:45;;;;;;;25.42;6.25;;;;;;;11.93;93.40;101302.97;5011750;28;20037;-42
2023/05/19 09:04:13;;;;;;;17.67;6.57;;;;;;;11.91;94.13;101299.66;5009976;28;20391;-44
2023/05/19 09:06:43;;;;;;;19.35;6.72;;;;;;;11.88;94.20;101298.25;4992014;28;20018;-43
2023/05/19 09:09:10;;;;;;;23.48;7.20;;;;;;;11.93;93.84;101302.16;4992082;28;20538;-44
2023/05/19 09:11:36;;;;;;;21.50;6.40;;;;;;;11.92;94.11;101301.31;4998192;28;20026;-45
2023/05/19 09:14:04;;;;;;;22.58;6.75;;;;;;;11.98;93.50;101303.19;5011423;28;20040;-43
2023/05/19 09:16:31;;;;;;;18.10;6.93;;;;;;;11.92;93.59;101303.19;5011267;28;20120;-44
2023/05/19 09:18:59;;;;;;;26.20;6.03;;;;;;;11.95;93.60;101302.78;5011061;28;20375;-43
2023/05/19 09:21:32;;;;;;;19.08;6.25;;;;;;;11.94;93.62;101287.69;5010266;28;20026;-46
2023/05/19 09:24:05;;;;;;;25.42;7.35;;;;;;;12.00;93.29;101287.72;5013877;28;20037;-44
2023/05/19 09:26:42;;;;;;;19.77;7.07;;;;;;;12.04;93.12;101301.53;5014725;28;20119;-43
2023/05/19 09:29:16;;;;;;;25.75;6.13;;;;;;;11.97;93.10;101293.50;5013355;28;20116;-44
2023/05/19 09:32:03;;;;;;;23.58;6.72;;;;;;;11.97;93.23;101284.63;5013898;28;20415;-43
2023/05/19 09:34:29;;;;;;;16.67;6.18;;;;;;;12.03;92.39;101281.94;5015059;28;20121;-44
2023/05/19 09:36:58;;;;;;;18.27;5.35;;;;;;;12.10;92.74;101288.16;5014905;28;20375;-43
2023/05/19 09:39:25;;;;;;;24.13;6.25;;;;;;;12.20;91.95;101287.72;4996798;28;20113;-44
2023/05/19 09:41:53;;;;;;;17.38;6.07;;;;;;;12.01;92.94;101283.19;5014418;28;20096;-43
2023/05/19 09:44:23;;;;;;;16.67;6.53;;;;;;;11.98;92.61;101280.91;5013717;28;20109;-45
2023/05/19 09:46:53;;;;;;;18.55;5.88;;;;;;;11.88;93.00;101282.16;5014350;28;20040;-46
2023/05/19 09:49:21;;;;;;;16.55;6.07;;;;;;;12.01;92.69;101288.56;5014380;28;20026;-44
2023/05/19 09:51:57;;;;;;;19.17;6.38;;;;;;;12.02;93.76;101290.19;5014395;28;20030;-43
2023/05/19 09:54:25;;;;;;;17.70;6.88;;;;;;;12.07;93.47;101290.41;5014283;28;20061;-43
2023/05/19 09:57:06;;;;;;;16.70;6.63;;;;;;;12.17;92.86;101284.66;5014195;28;20050;-43
2023/05/19 09:59:32;;;;;;;21.08;6.20;;;;;;;12.12;91.83;101275.34;5014241;28;20033;-43
2023/05/19 10:02:00;;;;;;;17.25;6.07;;;;;;;12.18;91.67;101288.97;5013894;28;20073;-46
2023/05/19 10:04:28;;;;;;;20.45;6.40;;;;;;;12.23;90.85;101279.28;5013236;28;20545;-42
2023/05/19 10:06:58;;;;;;;18.38;5.88;;;;;;;12.08;91.55;101279.47;5014475;28;20110;-44
2023/05/19 10:09:26;;;;;;;16.63;6.53;;;;;;;12.12;91.80;101283.41;5013976;28;20104;-45
2023/05/19 10:11:57;;;;;;;22.27;7.25;;;;;;;12.04;92.71;101274.72;5013019;28;20072;-43
2023/05/19 10:14:28;;;;;;;21.15;6.50;;;;;;;12.08;93.39;101284.00;5013646;28;20034;-44
2023/05/19 10:16:58;;;;;;;17.92;6.45;;;;;;;12.21;92.96;101280.50;5014412;28;20032;-43
2023/05/19 10:19:27;;;;;;;16.75;6.15;;;;;;;12.23;92.06;101289.19;5014429;28;20061;-43
2023/05/19 10:21:54;;;;;;;21.52;6.20;;;;;;;12.20;92.08;101281.53;5013995;28;20033;-44
2023/05/19 10:24:21;;;;;;;17.20;6.28;;;;;;;12.22;91.92;101291.06;5014410;28;20141;-43
2023/05/19 10:27:14;;;;;;;21.73;7.20;;;;;;;12.19;92.47;101296.00;4996711;28;20026;-47
2023/05/19 10:29:47;;;;;;;16.65;6.53;;;;;;;12.15;92.52;101295.56;5003835;28;20027;-44
2023/05/19 10:32:18;;;;;;;16.55;5.80;;;;;;;12.20;92.11;101298.47;4994524;28;20041;-46
2023/05/19 10:35:21;;;;;;;17.63;5.75;;;;;;;12.20;91.82;101301.16;5012767;28;20081;-46
2023/05/19 10:38:28;;;;;;;22.77;6.55;;;;;;;12.19;91.93;101296.81;5014001;28;20033;-44
2023/05/19 10:41:10;;;;;;;17.63;5.90;;;;;;;12.07;92.29;101299.28;4934263;29;20506;-46
2023/05/19 10:44:04;;;;;;;21.40;6.15;;;;;;;12.12;91.73;101296.00;4934207;29;20440;-44
2023/05/19 10:46:31;;;;;;;25.00;6.95;;;;;;;12.02;92.63;101287.53;4995473;28;20485;-44
2023/05/19 10:48:57;;;;;;;20.92;6.47;;;;;;;12.09;92.31;101289.16;5013720;28;20041;-45
2023/05/19 10:51:33;;;;;;;21.77;6.68;;;;;;;12.17;91.88;101298.06;5013398;28;20029;-43
2023/05/19 10:54:07;;;;;;;19.48;6.38;;;;;;;12.15;91.97;101306.31;5013261;28;20091;-44
2023/05/19 10:56:35;;;;;;;17.63;6.60;;;;;;;12.09;92.16;101299.91;5013767;28;20029;-44
2023/05/19 10:59:02;;;;;;;16.45;6.38;;;;;;;12.19;91.78;101293.31;5013746;28;20045;-43
2023/05/19 11:01:37;;;;;;;17.25;6.60;;;;;;;12.01;92.69;101302.78;5013240;28;20080;-44
2023/05/19 11:04:11;;;;;;;19.02;7.00;;;;;;;12.03;92.99;101306.09;5013217;28;20132;-44
2023/05/19 11:06:39;;;;;;;22.15;6.43;;;;;;;12.06;92.90;101302.19;5013681;28;20149;-45
2023/05/19 11:09:16;;;;;;;20.90;6.57;;;;;;;12.11;92.57;101315.81;5014807;28;20088;-44
2023/05/19 11:11:47;;;;;;;23.08;7.20;;;;;;;12.13;92.63;101306.53;5033059;28;20032;-44
2023/05/19 11:14:18;;;;;;;20.52;8.02;;;;;;;12.12;92.66;101312.09;5033120;28;20045;-43
2023/05/19 11:16:50;;;;;;;14.00;6.60;;;;;;;12.07;93.28;101306.50;5013001;28;20499;-44
2023/05/19 11:19:28;;;;;;;19.30;6.10;;;;;;;12.12;93.17;101309.41;5008826;28;20041;-44
2023/05/19 11:21:55;;;;;;;19.13;7.05;;;;;;;12.09;93.08;101301.75;5008703;28;20509;-45
2023/05/19 11:24:38;;;;;;;23.45;7.18;;;;;;;12.07;92.73;101311.88;4995462;28;20391;-46
2023/05/19 11:27:27;;;;;;;19.00;6.50;;;;;;;12.11;92.99;101318.50;5013142;28;20022;-43